sensor_id;sensor_type;location;lat;lon;timestamp;P1;durP1;ratioP1;P2;durP2;ratioP2
5077;SDS011;2557;51.390;7.494;2023-02-28T00:02:25;7.13;;;4.90;;
5077;SDS011;2557;51.390;7.494;2023-02-28T00:04:51;10.70;;;4.53;;
5077;SDS011;2557;51.390;7.494;2023-02-28T00:07:26;7.85;;;4.00;;
5077;SDS011;2557;51.390;7.494;2023-02-28T00:09:52;8.45;;;4.03;;
5077;SDS011;2557;51.390;7.494;2023-02-28T00:12:18;6.90;;;5.90;;
5077;SDS011;2557;51.390;7.494;2023-02-28T00:14:44;5.20;;;3.97;;
5077;SDS011;2557;51.390;7.494;2023-02-28T00:17:10;5.30;;;4.00;;
5077;SDS011;2557;51.390;7.494;2023-02-28T00:19:36;12.10;;;5.40;;
5077;SDS011;2557;51.390;7.494;2023-02-28T00:22:02;5.20;;;4.45;;
5077;SDS011;2557;51.390;7.494;2023-02-28T00:24:28;6.72;;;4.60;;
5077;SDS011;2557;51.390;7.494;2023-02-28T00:26:54;9.82;;;5.60;;
5077;SDS011;2557;51.390;7.494;2023-02-28T00:29:20;8.93;;;5.90;;
5077;SDS011;2557;51.390;7.494;2023-02-28T00:31:46;6.00;;;4.37;;
5077;SDS011;2557;51.390;7.494;2023-02-28T00:34:12;5.83;;;5.23;;
5077;SDS011;2557;51.390;7.494;2023-02-28T00:36:38;5.53;;;4.50;;
5077;SDS011;2557;51.390;7.494;2023-02-28T00:39:05;8.32;;;5.97;;
5077;SDS011;2557;51.390;7.494;2023-02-28T00:41:31;6.27;;;5.13;;
5077;SDS011;2557;51.390;7.494;2023-02-28T00:43:57;7.20;;;5.50;;
5077;SDS011;2557;51.390;7.494;2023-02-28T00:46:23;17.37;;;9.10;;
5077;SDS011;2557;51.390;7.494;2023-02-28T00:48:49;16.13;;;7.97;;
5077;SDS011;2557;51.390;7.494;2023-02-28T00:51:15;12.20;;;6.40;;
5077;SDS011;2557;51.390;7.494;2023-02-28T00:53:41;10.33;;;6.23;;
5077;SDS011;2557;51.390;7.494;2023-02-28T00:56:07;8.80;;;5.70;;
5077;SDS011;2557;51.390;7.494;2023-02-28T00:58:33;6.53;;;5.33;;
5077;SDS011;2557;51.390;7.494;2023-02-28T01:00:59;9.97;;;5.10;;
5077;SDS011;2557;51.390;7.494;2023-02-28T01:03:25;5.47;;;4.65;;
5077;SDS011;2557;51.390;7.494;2023-02-28T01:05:51;8.13;;;5.90;;
5077;SDS011;2557;51.390;7.494;2023-02-28T01:08:18;9.43;;;5.55;;
5077;SDS011;2557;51.390;7.494;2023-02-28T01:10:44;5.60;;;4.90;;
5077;SDS011;2557;51.390;7.494;2023-02-28T01:13:11;8.57;;;5.75;;
5077;SDS011;2557;51.390;7.494;2023-02-28T01:15:37;10.68;;;5.80;;
5077;SDS011;2557;51.390;7.494;2023-02-28T01:18:05;9.32;;;5.65;;
5077;SDS011;2557;51.390;7.494;2023-02-28T01:20:31;12.73;;;5.27;;
5077;SDS011;2557;51.390;7.494;2023-02-28T01:22:57;6.88;;;5.63;;
5077;SDS011;2557;51.390;7.494;2023-02-28T01:25:23;10.82;;;6.05;;
5077;SDS011;2557;51.390;7.494;2023-02-28T01:27:49;12.40;;;6.40;;
5077;SDS011;2557;51.390;7.494;2023-02-28T01:30:15;7.83;;;6.27;;
5077;SDS011;2557;51.390;7.494;2023-02-28T01:32:41;7.55;;;6.22;;
5077;SDS011;2557;51.390;7.494;2023-02-28T01:35:07;7.40;;;5.67;;
5077;SDS011;2557;51.390;7.494;2023-02-28T01:37:33;14.65;;;7.85;;
5077;SDS011;2557;51.390;7.494;2023-02-28T01:39:59;11.50;;;7.23;;
5077;SDS011;2557;51.390;7.494;2023-02-28T01:42:25;9.93;;;6.77;;
5077;SDS011;2557;51.390;7.494;2023-02-28T01:44:59;16.33;;;7.00;;
5077;SDS011;2557;51.390;7.494;2023-02-28T01:47:29;9.85;;;5.82;;
5077;SDS011;2557;51.390;7.494;2023-02-28T01:49:56;9.40;;;6.40;;
5077;SDS011;2557;51.390;7.494;2023-02-28T01:52:22;12.00;;;6.75;;
5077;SDS011;2557;51.390;7.494;2023-02-28T01:54:51;14.90;;;7.43;;
5077;SDS011;2557;51.390;7.494;2023-02-28T01:57:18;16.85;;;6.35;;
5077;SDS011;2557;51.390;7.494;2023-02-28T02:00:28;8.57;;;6.68;;
5077;SDS011;2557;51.390;7.494;2023-02-28T02:02:34;16.10;;;9.60;;
5077;SDS011;2557;51.390;7.494;2023-02-28T02:05:05;13.60;;;7.70;;
5077;SDS011;2557;51.390;7.494;2023-02-28T02:07:33;7.82;;;5.68;;
5077;SDS011;2557;51.390;7.494;2023-02-28T02:10:04;15.07;;;6.20;;
5077;SDS011;2557;51.390;7.494;2023-02-28T02:15:05;10.25;;;5.45;;
5077;SDS011;2557;51.390;7.494;2023-02-28T02:17:42;6.28;;;5.40;;
5077;SDS011;2557;51.390;7.494;2023-02-28T02:20:25;9.10;;;6.00;;
5077;SDS011;2557;51.390;7.494;2023-02-28T02:23:07;10.25;;;5.60;;
5077;SDS011;2557;51.390;7.494;2023-02-28T02:25:43;9.30;;;6.50;;
5077;SDS011;2557;51.390;7.494;2023-02-28T02:28:32;9.05;;;6.20;;
5077;SDS011;2557;51.390;7.494;2023-02-28T02:46:13;6.67;;;5.97;;
5077;SDS011;2557;51.390;7.494;2023-02-28T02:48:41;9.32;;;7.15;;
5077;SDS011;2557;51.390;7.494;2023-02-28T02:51:09;6.90;;;5.47;;
5077;SDS011;2557;51.390;7.494;2023-02-28T02:53:38;10.90;;;6.30;;
5077;SDS011;2557;51.390;7.494;2023-02-28T02:56:06;9.13;;;7.38;;
5077;SDS011;2557;51.390;7.494;2023-02-28T02:58:34;9.90;;;6.25;;
5077;SDS011;2557;51.390;7.494;2023-02-28T03:01:06;6.65;;;5.78;;
5077;SDS011;2557;51.390;7.494;2023-02-28T03:03:34;9.02;;;6.50;;
5077;SDS011;2557;51.390;7.494;2023-02-28T03:06:01;9.80;;;6.93;;
5077;SDS011;2557;51.390;7.494;2023-02-28T03:08:28;7.65;;;6.85;;
5077;SDS011;2557;51.390;7.494;2023-02-28T03:11:01;9.02;;;6.75;;
5077;SDS011;2557;51.390;7.494;2023-02-28T03:16:28;7.50;;;5.78;;
5077;SDS011;2557;51.390;7.494;2023-02-28T03:24:09;6.90;;;6.20;;
5077;SDS011;2557;51.390;7.494;2023-02-28T03:26:38;12.18;;;6.60;;
5077;SDS011;2557;51.390;7.494;2023-02-28T03:29:06;11.07;;;6.15;;
5077;SDS011;2557;51.390;7.494;2023-02-28T03:31:41;9.25;;;5.38;;
5077;SDS011;2557;51.390;7.494;2023-02-28T03:34:10;6.25;;;5.63;;
5077;SDS011;2557;51.390;7.494;2023-02-28T03:36:38;10.25;;;6.60;;
5077;SDS011;2557;51.390;7.494;2023-02-28T03:39:09;10.60;;;6.55;;
5077;SDS011;2557;51.390;7.494;2023-02-28T03:41:36;8.80;;;6.38;;
5077;SDS011;2557;51.390;7.494;2023-02-28T03:47:04;8.95;;;5.50;;
5077;SDS011;2557;51.390;7.494;2023-02-28T03:49:32;12.18;;;5.85;;
5077;SDS011;2557;51.390;7.494;2023-02-28T03:52:01;8.63;;;5.72;;
5077;SDS011;2557;51.390;7.494;2023-02-28T03:54:29;7.90;;;5.85;;
5077;SDS011;2557;51.390;7.494;2023-02-28T03:57:02;8.15;;;5.90;;
5077;SDS011;2557;51.390;7.494;2023-02-28T03:59:32;8.25;;;5.60;;
5077;SDS011;2557;51.390;7.494;2023-02-28T04:02:00;6.07;;;5.57;;
5077;SDS011;2557;51.390;7.494;2023-02-28T04:04:26;11.27;;;7.10;;
5077;SDS011;2557;51.390;7.494;2023-02-28T04:06:52;8.20;;;5.93;;
5077;SDS011;2557;51.390;7.494;2023-02-28T04:09:18;6.63;;;5.32;;
5077;SDS011;2557;51.390;7.494;2023-02-28T04:11:45;9.82;;;5.85;;
5077;SDS011;2557;51.390;7.494;2023-02-28T04:14:12;11.57;;;6.60;;
5077;SDS011;2557;51.390;7.494;2023-02-28T04:16:39;14.43;;;6.72;;
5077;SDS011;2557;51.390;7.494;2023-02-28T04:19:06;15.27;;;6.82;;
5077;SDS011;2557;51.390;7.494;2023-02-28T04:21:33;6.82;;;5.35;;
5077;SDS011;2557;51.390;7.494;2023-02-28T04:24:00;8.20;;;6.28;;
5077;SDS011;2557;51.390;7.494;2023-02-28T04:26:32;8.65;;;5.47;;
5077;SDS011;2557;51.390;7.494;2023-02-28T04:28:59;11.65;;;7.95;;
5077;SDS011;2557;51.390;7.494;2023-02-28T04:31:25;6.93;;;6.15;;
5077;SDS011;2557;51.390;7.494;2023-02-28T04:33:51;10.10;;;7.45;;
5077;SDS011;2557;51.390;7.494;2023-02-28T04:36:17;11.80;;;6.53;;
5077;SDS011;2557;51.390;7.494;2023-02-28T04:38:44;8.80;;;6.30;;
5077;SDS011;2557;51.390;7.494;2023-02-28T04:41:10;8.40;;;5.57;;
5077;SDS011;2557;51.390;7.494;2023-02-28T04:43:36;10.45;;;6.95;;
5077;SDS011;2557;51.390;7.494;2023-02-28T04:46:03;12.93;;;6.37;;
5077;SDS011;2557;51.390;7.494;2023-02-28T04:48:30;8.13;;;5.45;;
5077;SDS011;2557;51.390;7.494;2023-02-28T04:50:59;8.10;;;6.25;;
5077;SDS011;2557;51.390;7.494;2023-02-28T04:53:26;9.35;;;6.05;;
5077;SDS011;2557;51.390;7.494;2023-02-28T04:55:53;8.50;;;6.00;;
5077;SDS011;2557;51.390;7.494;2023-02-28T04:58:19;9.98;;;5.30;;
5077;SDS011;2557;51.390;7.494;2023-02-28T05:00:47;8.13;;;5.82;;
5077;SDS011;2557;51.390;7.494;2023-02-28T05:03:13;6.33;;;5.50;;
5077;SDS011;2557;51.390;7.494;2023-02-28T05:05:39;13.55;;;6.05;;
5077;SDS011;2557;51.390;7.494;2023-02-28T05:08:05;9.27;;;5.77;;
5077;SDS011;2557;51.390;7.494;2023-02-28T05:10:31;9.40;;;6.37;;
5077;SDS011;2557;51.390;7.494;2023-02-28T05:12:57;8.32;;;5.90;;
5077;SDS011;2557;51.390;7.494;2023-02-28T05:15:24;8.68;;;5.65;;
5077;SDS011;2557;51.390;7.494;2023-02-28T05:17:50;9.85;;;5.70;;
5077;SDS011;2557;51.390;7.494;2023-02-28T05:20:16;7.57;;;5.57;;
5077;SDS011;2557;51.390;7.494;2023-02-28T05:22:42;7.07;;;5.82;;
5077;SDS011;2557;51.390;7.494;2023-02-28T05:25:10;5.70;;;4.57;;
5077;SDS011;2557;51.390;7.494;2023-02-28T05:27:37;15.57;;;7.90;;
5077;SDS011;2557;51.390;7.494;2023-02-28T05:30:03;10.03;;;6.60;;
5077;SDS011;2557;51.390;7.494;2023-02-28T05:32:29;7.32;;;5.40;;
5077;SDS011;2557;51.390;7.494;2023-02-28T05:34:55;11.48;;;6.10;;
5077;SDS011;2557;51.390;7.494;2023-02-28T05:37:21;9.80;;;5.37;;
5077;SDS011;2557;51.390;7.494;2023-02-28T05:39:47;11.32;;;5.63;;
5077;SDS011;2557;51.390;7.494;2023-02-28T05:42:13;8.40;;;5.73;;
5077;SDS011;2557;51.390;7.494;2023-02-28T05:44:39;8.23;;;5.80;;
5077;SDS011;2557;51.390;7.494;2023-02-28T05:47:05;5.28;;;4.68;;
5077;SDS011;2557;51.390;7.494;2023-02-28T05:49:31;9.10;;;5.20;;
5077;SDS011;2557;51.390;7.494;2023-02-28T05:51:57;7.13;;;4.97;;
5077;SDS011;2557;51.390;7.494;2023-02-28T05:54:23;7.43;;;6.37;;
5077;SDS011;2557;51.390;7.494;2023-02-28T05:56:49;6.88;;;4.40;;
5077;SDS011;2557;51.390;7.494;2023-02-28T05:59:15;10.27;;;5.80;;
5077;SDS011;2557;51.390;7.494;2023-02-28T06:01:42;8.57;;;5.27;;
5077;SDS011;2557;51.390;7.494;2023-02-28T06:04:16;8.45;;;5.25;;
5077;SDS011;2557;51.390;7.494;2023-02-28T06:06:44;5.60;;;4.70;;
5077;SDS011;2557;51.390;7.494;2023-02-28T06:09:10;7.95;;;4.65;;
5077;SDS011;2557;51.390;7.494;2023-02-28T06:11:36;6.43;;;5.15;;
5077;SDS011;2557;51.390;7.494;2023-02-28T06:14:02;8.30;;;4.97;;
5077;SDS011;2557;51.390;7.494;2023-02-28T06:16:30;8.43;;;4.70;;
5077;SDS011;2557;51.390;7.494;2023-02-28T06:18:59;7.55;;;4.93;;
5077;SDS011;2557;51.390;7.494;2023-02-28T06:21:26;5.72;;;4.30;;
5077;SDS011;2557;51.390;7.494;2023-02-28T06:23:52;6.90;;;4.55;;
5077;SDS011;2557;51.390;7.494;2023-02-28T06:26:19;8.30;;;6.53;;
5077;SDS011;2557;51.390;7.494;2023-02-28T06:28:45;7.40;;;4.75;;
5077;SDS011;2557;51.390;7.494;2023-02-28T06:31:12;6.93;;;5.45;;
5077;SDS011;2557;51.390;7.494;2023-02-28T06:33:39;8.38;;;4.90;;
5077;SDS011;2557;51.390;7.494;2023-02-28T06:36:05;7.15;;;4.70;;
5077;SDS011;2557;51.390;7.494;2023-02-28T06:38:32;8.00;;;6.95;;
5077;SDS011;2557;51.390;7.494;2023-02-28T06:40:59;4.88;;;4.15;;
5077;SDS011;2557;51.390;7.494;2023-02-28T06:43:27;10.02;;;4.70;;
5077;SDS011;2557;51.390;7.494;2023-02-28T06:45:57;5.80;;;5.22;;
5077;SDS011;2557;51.390;7.494;2023-02-28T06:48:23;6.60;;;5.00;;
5077;SDS011;2557;51.390;7.494;2023-02-28T06:50:49;8.63;;;5.18;;
5077;SDS011;2557;51.390;7.494;2023-02-28T06:53:15;6.93;;;4.70;;
5077;SDS011;2557;51.390;7.494;2023-02-28T06:55:41;9.20;;;5.30;;
5077;SDS011;2557;51.390;7.494;2023-02-28T06:58:07;7.67;;;5.73;;
5077;SDS011;2557;51.390;7.494;2023-02-28T07:00:40;12.07;;;5.22;;
5077;SDS011;2557;51.390;7.494;2023-02-28T07:03:08;9.32;;;4.75;;
5077;SDS011;2557;51.390;7.494;2023-02-28T07:05:34;7.43;;;4.93;;
5077;SDS011;2557;51.390;7.494;2023-02-28T07:08:00;9.00;;;5.40;;
5077;SDS011;2557;51.390;7.494;2023-02-28T07:10:28;10.10;;;4.95;;
5077;SDS011;2557;51.390;7.494;2023-02-28T07:12:53;9.00;;;5.87;;
5077;SDS011;2557;51.390;7.494;2023-02-28T07:15:19;8.10;;;4.67;;
5077;SDS011;2557;51.390;7.494;2023-02-28T07:17:45;7.95;;;6.43;;
5077;SDS011;2557;51.390;7.494;2023-02-28T07:20:12;6.78;;;4.57;;
5077;SDS011;2557;51.390;7.494;2023-02-28T07:22:38;7.63;;;4.32;;
5077;SDS011;2557;51.390;7.494;2023-02-28T07:25:04;6.13;;;5.53;;
5077;SDS011;2557;51.390;7.494;2023-02-28T07:27:31;5.70;;;4.90;;
5077;SDS011;2557;51.390;7.494;2023-02-28T07:29:57;6.70;;;4.55;;
5077;SDS011;2557;51.390;7.494;2023-02-28T07:32:26;6.40;;;5.50;;
5077;SDS011;2557;51.390;7.494;2023-02-28T07:34:52;6.72;;;5.22;;
5077;SDS011;2557;51.390;7.494;2023-02-28T07:37:18;8.60;;;4.87;;
5077;SDS011;2557;51.390;7.494;2023-02-28T07:39:44;9.70;;;6.32;;
5077;SDS011;2557;51.390;7.494;2023-02-28T07:42:10;6.70;;;5.40;;
5077;SDS011;2557;51.390;7.494;2023-02-28T07:44:38;8.23;;;5.30;;
5077;SDS011;2557;51.390;7.494;2023-02-28T07:47:08;10.98;;;6.03;;
5077;SDS011;2557;51.390;7.494;2023-02-28T07:49:37;8.73;;;4.75;;
5077;SDS011;2557;51.390;7.494;2023-02-28T07:52:04;4.60;;;4.00;;
5077;SDS011;2557;51.390;7.494;2023-02-28T07:54:30;7.07;;;5.70;;
5077;SDS011;2557;51.390;7.494;2023-02-28T07:56:56;7.95;;;4.55;;
5077;SDS011;2557;51.390;7.494;2023-02-28T07:59:22;6.83;;;4.80;;
5077;SDS011;2557;51.390;7.494;2023-02-28T08:01:49;7.22;;;4.60;;
5077;SDS011;2557;51.390;7.494;2023-02-28T08:04:15;6.63;;;4.55;;
5077;SDS011;2557;51.390;7.494;2023-02-28T08:06:41;7.15;;;4.68;;
5077;SDS011;2557;51.390;7.494;2023-02-28T08:09:07;4.40;;;4.00;;
5077;SDS011;2557;51.390;7.494;2023-02-28T08:11:33;3.88;;;3.33;;
5077;SDS011;2557;51.390;7.494;2023-02-28T08:13:59;4.25;;;3.17;;
5077;SDS011;2557;51.390;7.494;2023-02-28T08:16:25;4.80;;;4.07;;
5077;SDS011;2557;51.390;7.494;2023-02-28T08:18:51;4.60;;;4.30;;
5077;SDS011;2557;51.390;7.494;2023-02-28T08:21:18;5.25;;;3.67;;
5077;SDS011;2557;51.390;7.494;2023-02-28T08:23:46;4.22;;;3.83;;
5077;SDS011;2557;51.390;7.494;2023-02-28T08:26:13;6.13;;;4.40;;
5077;SDS011;2557;51.390;7.494;2023-02-28T08:28:39;4.22;;;3.83;;
5077;SDS011;2557;51.390;7.494;2023-02-28T08:31:09;4.88;;;3.58;;
5077;SDS011;2557;51.390;7.494;2023-02-28T08:33:35;3.90;;;3.60;;
5077;SDS011;2557;51.390;7.494;2023-02-28T08:36:01;5.60;;;3.50;;
5077;SDS011;2557;51.390;7.494;2023-02-28T08:38:27;3.67;;;3.30;;
5077;SDS011;2557;51.390;7.494;2023-02-28T08:41:00;4.33;;;3.93;;
5077;SDS011;2557;51.390;7.494;2023-02-28T08:43:27;4.13;;;3.60;;
5077;SDS011;2557;51.390;7.494;2023-02-28T08:45:54;4.43;;;4.03;;
5077;SDS011;2557;51.390;7.494;2023-02-28T08:48:21;5.10;;;3.92;;
5077;SDS011;2557;51.390;7.494;2023-02-28T08:53:22;4.68;;;4.22;;
5077;SDS011;2557;51.390;7.494;2023-02-28T08:55:55;4.50;;;4.10;;
5077;SDS011;2557;51.390;7.494;2023-02-28T08:58:21;6.10;;;3.88;;
5077;SDS011;2557;51.390;7.494;2023-02-28T09:00:47;7.00;;;4.80;;
5077;SDS011;2557;51.390;7.494;2023-02-28T09:03:13;5.60;;;4.13;;
5077;SDS011;2557;51.390;7.494;2023-02-28T09:05:39;6.70;;;3.53;;
5077;SDS011;2557;51.390;7.494;2023-02-28T09:08:04;5.47;;;4.10;;
5077;SDS011;2557;51.390;7.494;2023-02-28T09:10:31;4.63;;;4.18;;
5077;SDS011;2557;51.390;7.494;2023-02-28T09:12:57;4.95;;;4.13;;
5077;SDS011;2557;51.390;7.494;2023-02-28T09:15:23;5.23;;;3.97;;
5077;SDS011;2557;51.390;7.494;2023-02-28T09:17:49;4.07;;;3.63;;
5077;SDS011;2557;51.390;7.494;2023-02-28T09:20:15;4.37;;;3.97;;
5077;SDS011;2557;51.390;7.494;2023-02-28T09:22:41;5.10;;;4.50;;
5077;SDS011;2557;51.390;7.494;2023-02-28T09:25:07;4.90;;;4.07;;
5077;SDS011;2557;51.390;7.494;2023-02-28T09:27:33;5.03;;;3.60;;
5077;SDS011;2557;51.390;7.494;2023-02-28T09:29:59;7.63;;;5.20;;
5077;SDS011;2557;51.390;7.494;2023-02-28T09:32:25;4.17;;;3.70;;
5077;SDS011;2557;51.390;7.494;2023-02-28T09:34:51;4.05;;;3.65;;
5077;SDS011;2557;51.390;7.494;2023-02-28T09:37:17;9.43;;;4.70;;
5077;SDS011;2557;51.390;7.494;2023-02-28T09:39:43;5.70;;;4.43;;
5077;SDS011;2557;51.390;7.494;2023-02-28T09:42:12;4.30;;;3.90;;
5077;SDS011;2557;51.390;7.494;2023-02-28T09:44:44;3.75;;;3.40;;
5077;SDS011;2557;51.390;7.494;2023-02-28T09:49:48;3.78;;;3.47;;
5077;SDS011;2557;51.390;7.494;2023-02-28T09:57:48;5.10;;;3.15;;
5077;SDS011;2557;51.390;7.494;2023-02-28T10:05:17;7.03;;;3.93;;
5077;SDS011;2557;51.390;7.494;2023-02-28T10:10:22;4.10;;;3.70;;
5077;SDS011;2557;51.390;7.494;2023-02-28T10:12:49;4.97;;;3.80;;
5077;SDS011;2557;51.390;7.494;2023-02-28T10:15:17;4.30;;;3.90;;
5077;SDS011;2557;51.390;7.494;2023-02-28T10:17:46;6.25;;;3.60;;
5077;SDS011;2557;51.390;7.494;2023-02-28T10:20:19;3.35;;;2.78;;
5077;SDS011;2557;51.390;7.494;2023-02-28T10:25:28;4.20;;;3.20;;
5077;SDS011;2557;51.390;7.494;2023-02-28T10:27:59;3.95;;;2.90;;
5077;SDS011;2557;51.390;7.494;2023-02-28T10:30:26;5.30;;;3.80;;
5077;SDS011;2557;51.390;7.494;2023-02-28T10:32:53;5.97;;;2.92;;
5077;SDS011;2557;51.390;7.494;2023-02-28T10:35:23;3.60;;;3.30;;
5077;SDS011;2557;51.390;7.494;2023-02-28T10:37:51;6.40;;;3.33;;
5077;SDS011;2557;51.390;7.494;2023-02-28T10:43:00;6.57;;;3.42;;
5077;SDS011;2557;51.390;7.494;2023-02-28T10:45:28;4.77;;;3.40;;
5077;SDS011;2557;51.390;7.494;2023-02-28T10:47:59;2.63;;;2.33;;
5077;SDS011;2557;51.390;7.494;2023-02-28T10:50:27;3.43;;;3.23;;
5077;SDS011;2557;51.390;7.494;2023-02-28T10:52:54;3.47;;;3.10;;
5077;SDS011;2557;51.390;7.494;2023-02-28T10:55:21;3.07;;;2.77;;
5077;SDS011;2557;51.390;7.494;2023-02-28T10:57:49;2.63;;;2.53;;
5077;SDS011;2557;51.390;7.494;2023-02-28T11:00:16;2.93;;;2.70;;
5077;SDS011;2557;51.390;7.494;2023-02-28T11:02:43;2.83;;;2.63;;
5077;SDS011;2557;51.390;7.494;2023-02-28T11:08:10;4.97;;;3.00;;
5077;SDS011;2557;51.390;7.494;2023-02-28T11:10:38;3.37;;;2.50;;
5077;SDS011;2557;51.390;7.494;2023-02-28T11:13:04;3.30;;;3.10;;
5077;SDS011;2557;51.390;7.494;2023-02-28T11:15:32;3.43;;;2.80;;
5077;SDS011;2557;51.390;7.494;2023-02-28T11:18:00;4.00;;;2.93;;
5077;SDS011;2557;51.390;7.494;2023-02-28T11:20:28;3.07;;;2.87;;
5077;SDS011;2557;51.390;7.494;2023-02-28T11:22:54;5.50;;;3.63;;
5077;SDS011;2557;51.390;7.494;2023-02-28T11:25:23;3.40;;;2.90;;
5077;SDS011;2557;51.390;7.494;2023-02-28T11:27:50;3.00;;;2.70;;
5077;SDS011;2557;51.390;7.494;2023-02-28T11:30:24;5.73;;;3.60;;
5077;SDS011;2557;51.390;7.494;2023-02-28T11:32:51;3.20;;;2.80;;
5077;SDS011;2557;51.390;7.494;2023-02-28T11:35:18;4.03;;;2.93;;
5077;SDS011;2557;51.390;7.494;2023-02-28T11:37:47;2.97;;;2.77;;
5077;SDS011;2557;51.390;7.494;2023-02-28T11:40:14;5.60;;;2.80;;
5077;SDS011;2557;51.390;7.494;2023-02-28T11:42:44;3.87;;;3.20;;
5077;SDS011;2557;51.390;7.494;2023-02-28T11:45:18;4.37;;;3.03;;
5077;SDS011;2557;51.390;7.494;2023-02-28T11:47:48;3.40;;;3.20;;
5077;SDS011;2557;51.390;7.494;2023-02-28T11:55:44;6.33;;;3.13;;
5077;SDS011;2557;51.390;7.494;2023-02-28T11:58:18;3.27;;;2.97;;
5077;SDS011;2557;51.390;7.494;2023-02-28T12:03:35;3.83;;;3.50;;
5077;SDS011;2557;51.390;7.494;2023-02-28T12:06:09;4.80;;;4.40;;
5077;SDS011;2557;51.390;7.494;2023-02-28T12:14:03;3.10;;;2.90;;
5077;SDS011;2557;51.390;7.494;2023-02-28T12:21:56;3.90;;;3.50;;
5077;SDS011;2557;51.390;7.494;2023-02-28T12:24:38;3.33;;;3.13;;
5077;SDS011;2557;51.390;7.494;2023-02-28T12:27:09;3.33;;;3.03;;
5077;SDS011;2557;51.390;7.494;2023-02-28T12:30:22;3.60;;;3.40;;
5077;SDS011;2557;51.390;7.494;2023-02-28T12:32:36;3.90;;;3.50;;
5077;SDS011;2557;51.390;7.494;2023-02-28T12:37:32;7.80;;;3.83;;
5077;SDS011;2557;51.390;7.494;2023-02-28T12:40:01;3.93;;;3.53;;
5077;SDS011;2557;51.390;7.494;2023-02-28T12:42:36;5.80;;;3.97;;
5077;SDS011;2557;51.390;7.494;2023-02-28T12:45:08;5.13;;;3.47;;
5077;SDS011;2557;51.390;7.494;2023-02-28T12:47:36;3.43;;;3.17;;
5077;SDS011;2557;51.390;7.494;2023-02-28T12:50:08;4.43;;;3.40;;
5077;SDS011;2557;51.390;7.494;2023-02-28T12:55:29;3.83;;;3.53;;
5077;SDS011;2557;51.390;7.494;2023-02-28T12:58:04;9.27;;;3.80;;
5077;SDS011;2557;51.390;7.494;2023-02-28T13:00:35;3.10;;;2.90;;
5077;SDS011;2557;51.390;7.494;2023-02-28T13:03:24;3.93;;;3.63;;
5077;SDS011;2557;51.390;7.494;2023-02-28T13:08:53;4.57;;;4.17;;
5077;SDS011;2557;51.390;7.494;2023-02-28T13:11:25;3.97;;;3.70;;
5077;SDS011;2557;51.390;7.494;2023-02-28T13:13:57;4.40;;;3.97;;
5077;SDS011;2557;51.390;7.494;2023-02-28T13:16:24;5.40;;;3.53;;
5077;SDS011;2557;51.390;7.494;2023-02-28T13:18:50;4.17;;;3.90;;
5077;SDS011;2557;51.390;7.494;2023-02-28T13:21:24;3.83;;;3.60;;
5077;SDS011;2557;51.390;7.494;2023-02-28T13:31:25;4.40;;;3.60;;
5077;SDS011;2557;51.390;7.494;2023-02-28T13:36:27;4.93;;;4.37;;
5077;SDS011;2557;51.390;7.494;2023-02-28T13:38:58;4.17;;;3.87;;
5077;SDS011;2557;51.390;7.494;2023-02-28T13:44:16;4.43;;;4.03;;
5077;SDS011;2557;51.390;7.494;2023-02-28T13:57:12;3.97;;;3.63;;
5077;SDS011;2557;51.390;7.494;2023-02-28T13:59:50;3.83;;;3.53;;
5077;SDS011;2557;51.390;7.494;2023-02-28T14:05:27;7.17;;;4.73;;
5077;SDS011;2557;51.390;7.494;2023-02-28T14:07:39;4.17;;;3.60;;
5077;SDS011;2557;51.390;7.494;2023-02-28T14:10:07;4.30;;;3.90;;
5077;SDS011;2557;51.390;7.494;2023-02-28T14:20:55;8.67;;;3.90;;
5077;SDS011;2557;51.390;7.494;2023-02-28T14:26:12;4.03;;;3.37;;
5077;SDS011;2557;51.390;7.494;2023-02-28T14:31:25;3.90;;;3.57;;
5077;SDS011;2557;51.390;7.494;2023-02-28T14:36:32;4.63;;;3.97;;
5077;SDS011;2557;51.390;7.494;2023-02-28T14:39:00;3.70;;;3.40;;
5077;SDS011;2557;51.390;7.494;2023-02-28T14:41:32;5.00;;;3.50;;
5077;SDS011;2557;51.390;7.494;2023-02-28T14:44:03;4.97;;;4.47;;
5077;SDS011;2557;51.390;7.494;2023-02-28T14:46:36;4.20;;;3.90;;
5077;SDS011;2557;51.390;7.494;2023-02-28T14:49:06;5.65;;;4.50;;
5077;SDS011;2557;51.390;7.494;2023-02-28T14:51:32;3.60;;;3.13;;
5077;SDS011;2557;51.390;7.494;2023-02-28T14:53:59;6.45;;;3.80;;
5077;SDS011;2557;51.390;7.494;2023-02-28T14:56:27;4.85;;;4.45;;
5077;SDS011;2557;51.390;7.494;2023-02-28T14:58:56;4.60;;;4.10;;
5077;SDS011;2557;51.390;7.494;2023-02-28T15:01:23;4.30;;;4.00;;
5077;SDS011;2557;51.390;7.494;2023-02-28T15:03:56;4.90;;;4.50;;
5077;SDS011;2557;51.390;7.494;2023-02-28T15:06:23;4.20;;;3.85;;
5077;SDS011;2557;51.390;7.494;2023-02-28T15:09:06;5.30;;;3.85;;
5077;SDS011;2557;51.390;7.494;2023-02-28T15:11:32;4.90;;;4.18;;
5077;SDS011;2557;51.390;7.494;2023-02-28T15:13:58;5.85;;;4.05;;
5077;SDS011;2557;51.390;7.494;2023-02-28T15:16:36;6.47;;;4.88;;
5077;SDS011;2557;51.390;7.494;2023-02-28T15:21:48;5.20;;;4.70;;
5077;SDS011;2557;51.390;7.494;2023-02-28T15:27:21;6.72;;;4.22;;
5077;SDS011;2557;51.390;7.494;2023-02-28T15:29:48;4.85;;;4.35;;
5077;SDS011;2557;51.390;7.494;2023-02-28T15:32:29;8.55;;;4.05;;
5077;SDS011;2557;51.390;7.494;2023-02-28T15:34:56;5.88;;;5.28;;
5077;SDS011;2557;51.390;7.494;2023-02-28T15:37:30;5.75;;;4.70;;
5077;SDS011;2557;51.390;7.494;2023-02-28T15:40:10;7.07;;;4.53;;
5077;SDS011;2557;51.390;7.494;2023-02-28T15:42:37;4.57;;;4.18;;
5077;SDS011;2557;51.390;7.494;2023-02-28T15:45:03;5.60;;;4.17;;
5077;SDS011;2557;51.390;7.494;2023-02-28T15:47:29;5.88;;;4.70;;
5077;SDS011;2557;51.390;7.494;2023-02-28T15:50:05;5.85;;;4.28;;
5077;SDS011;2557;51.390;7.494;2023-02-28T15:54:58;5.03;;;3.60;;
5077;SDS011;2557;51.390;7.494;2023-02-28T15:57:25;5.90;;;4.25;;
5077;SDS011;2557;51.390;7.494;2023-02-28T15:59:59;3.97;;;3.67;;
5077;SDS011;2557;51.390;7.494;2023-02-28T16:02:30;4.88;;;4.30;;
5077;SDS011;2557;51.390;7.494;2023-02-28T16:07:32;5.22;;;4.50;;
5077;SDS011;2557;51.390;7.494;2023-02-28T16:09:58;6.55;;;4.72;;
5077;SDS011;2557;51.390;7.494;2023-02-28T16:12:25;5.45;;;3.78;;
5077;SDS011;2557;51.390;7.494;2023-02-28T16:14:52;6.25;;;4.15;;
5077;SDS011;2557;51.390;7.494;2023-02-28T16:17:23;4.93;;;3.72;;
5077;SDS011;2557;51.390;7.494;2023-02-28T16:19:50;4.82;;;4.35;;
5077;SDS011;2557;51.390;7.494;2023-02-28T16:22:16;4.10;;;3.60;;
5077;SDS011;2557;51.390;7.494;2023-02-28T16:24:42;7.55;;;5.82;;
5077;SDS011;2557;51.390;7.494;2023-02-28T16:27:21;5.32;;;3.95;;
5077;SDS011;2557;51.390;7.494;2023-02-28T16:29:50;4.18;;;3.83;;
5077;SDS011;2557;51.390;7.494;2023-02-28T16:32:16;5.13;;;3.72;;
5077;SDS011;2557;51.390;7.494;2023-02-28T16:34:43;8.30;;;4.40;;
5077;SDS011;2557;51.390;7.494;2023-02-28T16:37:16;7.30;;;5.25;;
5077;SDS011;2557;51.390;7.494;2023-02-28T16:39:43;4.90;;;4.40;;
5077;SDS011;2557;51.390;7.494;2023-02-28T16:45:13;6.40;;;5.13;;
5077;SDS011;2557;51.390;7.494;2023-02-28T16:47:40;7.50;;;4.47;;
5077;SDS011;2557;51.390;7.494;2023-02-28T16:50:12;6.27;;;4.90;;
5077;SDS011;2557;51.390;7.494;2023-02-28T16:52:38;5.68;;;4.07;;
5077;SDS011;2557;51.390;7.494;2023-02-28T16:55:04;5.30;;;4.10;;
5077;SDS011;2557;51.390;7.494;2023-02-28T16:57:30;5.38;;;4.97;;
5077;SDS011;2557;51.390;7.494;2023-02-28T16:59:56;7.63;;;4.70;;
5077;SDS011;2557;51.390;7.494;2023-02-28T17:02:22;4.38;;;3.80;;
5077;SDS011;2557;51.390;7.494;2023-02-28T17:04:48;8.10;;;4.83;;
5077;SDS011;2557;51.390;7.494;2023-02-28T17:07:15;5.60;;;4.80;;
5077;SDS011;2557;51.390;7.494;2023-02-28T17:09:41;4.22;;;3.83;;
5077;SDS011;2557;51.390;7.494;2023-02-28T17:12:07;9.43;;;5.13;;
5077;SDS011;2557;51.390;7.494;2023-02-28T17:14:34;5.22;;;4.57;;
5077;SDS011;2557;51.390;7.494;2023-02-28T17:17:00;5.18;;;4.68;;
5077;SDS011;2557;51.390;7.494;2023-02-28T17:19:26;4.83;;;4.37;;
5077;SDS011;2557;51.390;7.494;2023-02-28T17:21:53;6.47;;;4.53;;
5077;SDS011;2557;51.390;7.494;2023-02-28T17:24:19;4.72;;;4.22;;
5077;SDS011;2557;51.390;7.494;2023-02-28T17:26:45;5.37;;;4.90;;
5077;SDS011;2557;51.390;7.494;2023-02-28T17:29:14;4.43;;;3.73;;
5077;SDS011;2557;51.390;7.494;2023-02-28T17:31:41;6.18;;;5.35;;
5077;SDS011;2557;51.390;7.494;2023-02-28T17:34:08;8.48;;;4.53;;
5077;SDS011;2557;51.390;7.494;2023-02-28T17:36:34;4.60;;;4.20;;
5077;SDS011;2557;51.390;7.494;2023-02-28T17:39:02;4.82;;;4.30;;